createdAt,value
2022-12-20T00:00:16.301Z,0.00
2022-12-20T00:01:16.552Z,0.00
2022-12-20T00:02:17.026Z,0.00
2022-12-20T00:03:17.244Z,0.00
2022-12-20T00:04:17.393Z,0.00
2022-12-20T00:05:17.693Z,0.00
2022-12-20T00:06:18.050Z,0.00
2022-12-20T00:07:18.283Z,0.00
2022-12-20T00:08:18.566Z,0.00
2022-12-20T00:09:18.878Z,0.00
2022-12-20T00:10:19.140Z,0.00
2022-12-20T00:11:19.420Z,0.00
2022-12-20T00:12:19.653Z,0.00
2022-12-20T00:13:19.970Z,0.00
2022-12-20T00:14:20.245Z,0.00
2022-12-20T00:15:20.520Z,0.00
2022-12-20T00:16:20.802Z,0.00
2022-12-20T00:17:21.127Z,0.00
2022-12-20T00:18:21.389Z,0.00
2022-12-20T00:19:21.624Z,0.00
2022-12-20T00:20:21.950Z,0.00
2022-12-20T00:21:22.238Z,0.00
2022-12-20T00:22:22.520Z,0.00
2022-12-20T00:23:22.792Z,0.00
2022-12-20T00:24:26.394Z,0.00
2022-12-20T00:25:23.412Z,0.00
2022-12-20T00:26:23.654Z,0.00
2022-12-20T00:27:23.915Z,0.00
2022-12-20T00:28:24.196Z,0.00
2022-12-20T00:29:24.579Z,0.00
2022-12-20T00:30:24.807Z,0.00
2022-12-20T00:31:25.203Z,0.00
2022-12-20T00:32:25.335Z,0.00
2022-12-20T00:33:25.624Z,0.00
2022-12-20T00:34:25.908Z,0.00
2022-12-20T00:35:26.221Z,0.00
2022-12-20T00:36:26.513Z,0.00
2022-12-20T00:37:26.791Z,0.00
2022-12-20T00:38:27.028Z,0.00
2022-12-20T00:39:27.307Z,0.00
2022-12-20T00:40:27.635Z,0.00
2022-12-20T00:41:27.889Z,0.00
2022-12-20T00:42:28.189Z,0.00
2022-12-20T00:43:28.521Z,0.00
2022-12-20T00:44:28.743Z,0.00
2022-12-20T00:45:29.070Z,0.00
2022-12-20T00:46:29.387Z,0.00
2022-12-20T00:47:29.691Z,0.00
2022-12-20T00:48:29.951Z,0.00
2022-12-20T00:49:30.186Z,0.00
2022-12-20T00:50:30.510Z,0.00
2022-12-20T00:51:30.786Z,0.00
2022-12-20T00:52:31.103Z,0.00
2022-12-20T00:53:31.360Z,0.00
2022-12-20T00:54:31.627Z,0.00
2022-12-20T00:55:31.904Z,0.00
2022-12-20T00:56:32.176Z,0.00
2022-12-20T00:57:32.432Z,0.00
2022-12-20T00:58:32.703Z,0.00
2022-12-20T00:59:32.976Z,0.00
2022-12-20T01:00:33.479Z,0.00
2022-12-20T01:01:33.682Z,0.00
2022-12-20T01:02:34.032Z,0.00
2022-12-20T01:03:34.155Z,0.00
2022-12-20T01:04:34.317Z,0.00
2022-12-20T01:05:34.610Z,0.00
2022-12-20T01:06:34.922Z,0.00
2022-12-20T01:07:35.192Z,0.00
2022-12-20T01:08:35.519Z,0.00
2022-12-20T01:09:35.742Z,0.00
2022-12-20T01:10:36.014Z,0.00
2022-12-20T01:11:36.349Z,0.00
2022-12-20T01:12:36.593Z,0.00
2022-12-20T01:13:36.904Z,0.00
2022-12-20T01:14:37.185Z,0.00
2022-12-20T01:15:37.412Z,0.00
2022-12-20T01:16:37.874Z,0.00
2022-12-20T01:17:38.067Z,0.00
2022-12-20T01:18:38.330Z,0.00
2022-12-20T01:19:38.594Z,0.00
2022-12-20T01:20:38.838Z,0.00
2022-12-20T01:21:39.166Z,0.00
2022-12-20T01:22:45.523Z,0.00
2022-12-20T01:23:40.661Z,0.00
2022-12-20T01:24:39.961Z,0.00
2022-12-20T01:25:40.273Z,0.00
2022-12-20T01:26:40.541Z,0.00
2022-12-20T01:27:40.816Z,0.00
2022-12-20T01:28:41.101Z,0.00
2022-12-20T01:29:41.343Z,0.00
2022-12-20T01:30:41.611Z,0.00
2022-12-20T01:31:41.928Z,0.00
2022-12-20T01:32:42.206Z,0.00
2022-12-20T01:33:42.473Z,0.00
2022-12-20T01:34:42.723Z,0.00
2022-12-20T01:35:43.005Z,0.00
2022-12-20T01:36:43.263Z,0.00
2022-12-20T01:37:43.516Z,0.00
2022-12-20T01:38:43.753Z,0.00
2022-12-20T01:39:44.046Z,0.00
2022-12-20T01:40:44.289Z,0.00
2022-12-20T01:41:44.623Z,0.00
2022-12-20T01:42:44.875Z,0.00
2022-12-20T01:43:45.164Z,0.00
2022-12-20T01:44:45.433Z,0.00
2022-12-20T01:45:45.768Z,0.00
2022-12-20T01:46:45.929Z,0.00
2022-12-20T01:47:46.168Z,0.00
2022-12-20T01:48:46.444Z,0.00
2022-12-20T01:49:46.712Z,0.00
2022-12-20T01:50:47.027Z,0.00
2022-12-20T01:51:47.280Z,0.00
2022-12-20T01:52:47.561Z,0.00
2022-12-20T01:53:47.774Z,0.00
2022-12-20T01:54:48.077Z,0.00
2022-12-20T01:55:48.332Z,0.00
2022-12-20T01:56:48.621Z,0.00
2022-12-20T01:57:48.914Z,0.00
2022-12-20T01:58:49.169Z,0.00
2022-12-20T01:59:49.421Z,0.00
2022-12-20T02:00:49.711Z,0.00
2022-12-20T02:01:50.088Z,0.00
2022-12-20T02:02:50.409Z,0.00
2022-12-20T02:03:50.590Z,0.00
2022-12-20T02:04:50.825Z,0.00
2022-12-20T02:05:51.112Z,0.00
2022-12-20T02:06:51.432Z,0.00
2022-12-20T02:07:51.699Z,0.00
2022-12-20T02:08:51.942Z,0.00
2022-12-20T02:09:52.220Z,0.00
2022-12-20T02:10:52.522Z,0.00
2022-12-20T02:11:52.807Z,0.00
2022-12-20T02:12:53.071Z,0.00
2022-12-20T02:13:53.338Z,0.00
2022-12-20T02:14:53.607Z,0.00
2022-12-20T02:15:53.981Z,0.00
2022-12-20T02:16:54.157Z,0.00
2022-12-20T02:17:54.444Z,0.00
2022-12-20T02:18:54.694Z,0.00
2022-12-20T02:19:54.967Z,0.00
2022-12-20T02:20:55.222Z,0.00
2022-12-20T02:21:55.479Z,0.00
2022-12-20T02:22:55.735Z,0.00
2022-12-20T02:23:55.998Z,0.00
2022-12-20T02:24:56.236Z,0.00
2022-12-20T02:25:56.551Z,0.00
2022-12-20T02:26:56.802Z,0.00
2022-12-20T02:27:57.049Z,0.00
2022-12-20T02:28:57.368Z,0.00
2022-12-20T02:29:57.582Z,0.00
2022-12-20T02:30:57.927Z,0.00
2022-12-20T02:31:58.269Z,0.00
2022-12-20T02:32:58.423Z,0.00
2022-12-20T02:33:58.683Z,0.00
2022-12-20T02:34:58.976Z,0.00
2022-12-20T02:35:59.291Z,0.00
2022-12-20T02:36:59.597Z,0.00
2022-12-20T02:37:59.825Z,0.00
2022-12-20T02:39:00.100Z,0.00
2022-12-20T02:40:00.398Z,0.00
2022-12-20T02:41:00.669Z,0.00
2022-12-20T02:42:00.945Z,0.00
2022-12-20T02:43:01.210Z,0.00
2022-12-20T02:44:01.450Z,0.00
2022-12-20T02:45:01.763Z,0.00
2022-12-20T02:46:02.093Z,0.00
2022-12-20T02:47:02.344Z,0.00
2022-12-20T02:48:02.619Z,0.00
2022-12-20T02:49:02.861Z,0.00
2022-12-20T02:50:03.164Z,0.00
2022-12-20T02:51:03.434Z,0.00
2022-12-20T02:52:03.750Z,0.00
2022-12-20T02:53:04.017Z,0.00
2022-12-20T02:54:04.244Z,0.00
2022-12-20T02:55:04.547Z,0.00
2022-12-20T02:56:04.847Z,0.00
2022-12-20T02:57:05.095Z,0.00
2022-12-20T02:58:05.346Z,0.00
2022-12-20T02:59:05.623Z,0.00
2022-12-20T03:00:05.897Z,0.00
2022-12-20T03:01:06.245Z,0.00
2022-12-20T03:02:06.756Z,0.00
2022-12-20T03:03:06.919Z,0.00
2022-12-20T03:04:07.068Z,0.00
2022-12-20T03:05:07.294Z,0.00
2022-12-20T03:06:07.639Z,0.00
2022-12-20T03:07:07.912Z,0.00
2022-12-20T03:08:08.148Z,0.00
2022-12-20T03:09:08.431Z,0.00
2022-12-20T03:10:08.728Z,0.00
2022-12-20T03:11:09.016Z,0.00
2022-12-20T03:12:09.262Z,0.00
2022-12-20T03:13:09.557Z,0.00
2022-12-20T03:14:09.859Z,0.00
2022-12-20T03:15:10.131Z,0.00
2022-12-20T03:16:10.412Z,0.00
2022-12-20T03:17:10.702Z,0.00
2022-12-20T03:18:10.933Z,0.00
2022-12-20T03:19:11.215Z,0.00
2022-12-20T03:20:11.503Z,0.00
2022-12-20T03:21:11.823Z,0.00
2022-12-20T03:22:12.056Z,0.00
2022-12-20T03:23:12.326Z,0.00
2022-12-20T03:24:12.596Z,0.00
2022-12-20T03:25:12.839Z,0.00
2022-12-20T03:26:13.120Z,0.00
2022-12-20T03:27:13.375Z,0.00
2022-12-20T03:28:13.633Z,0.00
2022-12-20T03:29:13.925Z,0.00
2022-12-20T03:30:14.152Z,0.00
2022-12-20T03:31:14.509Z,0.00
2022-12-20T03:32:14.780Z,0.00
2022-12-20T03:33:15.026Z,0.00
2022-12-20T03:34:15.349Z,0.00
2022-12-20T03:35:15.574Z,0.00
2022-12-20T03:36:15.934Z,0.00
2022-12-20T03:37:16.211Z,0.00
2022-12-20T03:38:16.464Z,0.00
2022-12-20T03:39:16.691Z,0.00
2022-12-20T03:40:16.990Z,0.00
2022-12-20T03:41:17.350Z,0.00
2022-12-20T03:42:17.573Z,0.00
2022-12-20T03:43:17.855Z,0.00
2022-12-20T03:44:18.194Z,0.00
2022-12-20T03:45:18.451Z,0.00
2022-12-20T03:46:18.806Z,0.00
2022-12-20T03:47:19.072Z,0.00
2022-12-20T03:48:19.362Z,0.00
2022-12-20T03:49:19.614Z,0.00
2022-12-20T03:50:19.847Z,0.00
2022-12-20T03:51:20.168Z,0.00
2022-12-20T03:52:20.468Z,0.00
2022-12-20T03:53:20.684Z,0.00
2022-12-20T03:54:21.011Z,0.00
2022-12-20T03:55:21.347Z,0.00
2022-12-20T03:56:21.693Z,0.00
2022-12-20T03:57:21.989Z,0.00
2022-12-20T03:58:22.302Z,0.00
2022-12-20T03:59:22.653Z,0.00
2022-12-20T04:00:22.951Z,0.00
2022-12-20T04:01:23.301Z,0.00
2022-12-20T04:02:23.723Z,0.00
2022-12-20T04:03:23.884Z,0.00
2022-12-20T04:04:24.174Z,0.00
2022-12-20T04:05:24.516Z,0.00
2022-12-20T04:06:24.815Z,0.00
2022-12-20T04:07:25.082Z,0.00
2022-12-20T04:08:25.366Z,0.00
2022-12-20T04:09:25.608Z,0.00
2022-12-20T04:10:25.934Z,0.00
2022-12-20T04:11:26.202Z,0.00
2022-12-20T04:12:26.458Z,0.00
2022-12-20T04:13:26.736Z,0.00
2022-12-20T04:14:26.994Z,0.00
2022-12-20T04:15:27.283Z,0.00
2022-12-20T04:16:27.651Z,0.00
2022-12-20T04:17:27.837Z,0.00
2022-12-20T04:18:28.079Z,0.00
2022-12-20T04:19:28.348Z,0.00
2022-12-20T04:20:28.618Z,0.00
2022-12-20T04:21:28.913Z,0.00
2022-12-20T04:22:29.220Z,0.00
2022-12-20T04:23:29.495Z,0.00
2022-12-20T04:24:29.768Z,0.00
2022-12-20T04:25:30.014Z,0.00
2022-12-20T04:26:30.346Z,0.00
2022-12-20T04:27:30.588Z,0.00
2022-12-20T04:28:30.853Z,0.00
2022-12-20T04:29:31.090Z,0.00
2022-12-20T04:30:31.412Z,0.00
2022-12-20T04:31:31.880Z,0.00
2022-12-20T04:32:31.933Z,0.00
2022-12-20T04:33:32.258Z,0.00
2022-12-20T04:34:32.534Z,0.00
2022-12-20T04:35:32.818Z,0.00
2022-12-20T04:36:33.122Z,0.00
2022-12-20T04:37:33.382Z,0.00
2022-12-20T04:38:33.609Z,0.00
2022-12-20T04:39:33.888Z,0.00
2022-12-20T04:40:34.170Z,0.00
2022-12-20T04:41:34.479Z,0.00
2022-12-20T04:42:34.744Z,0.00
2022-12-20T04:43:35.028Z,0.00
2022-12-20T04:44:35.299Z,0.00
2022-12-20T04:45:35.533Z,0.00
2022-12-20T04:46:35.919Z,0.00
2022-12-20T04:47:36.047Z,0.00
2022-12-20T04:48:55.569Z,0.00
2022-12-20T04:49:37.601Z,0.00
2022-12-20T04:50:36.930Z,0.00
2022-12-20T04:51:44.233Z,0.00
2022-12-20T04:52:40.940Z,0.00
2022-12-20T04:53:38.691Z,0.00
2022-12-20T04:54:38.019Z,0.00
2022-12-20T04:55:38.278Z,0.00
2022-12-20T04:56:38.502Z,0.00
2022-12-20T04:57:38.811Z,0.00
2022-12-20T04:58:39.133Z,0.00
2022-12-20T04:59:39.378Z,0.00
2022-12-20T05:00:39.678Z,0.00
2022-12-20T05:01:40.037Z,0.00
2022-12-20T05:02:40.422Z,0.00
2022-12-20T05:03:40.475Z,0.00
2022-12-20T05:04:40.720Z,0.00
2022-12-20T05:05:41.015Z,0.00
2022-12-20T05:06:41.318Z,0.00
2022-12-20T05:07:41.634Z,0.00
2022-12-20T05:08:41.879Z,0.00
2022-12-20T05:09:42.157Z,0.00
2022-12-20T05:10:42.428Z,0.00
2022-12-20T05:11:42.711Z,0.00
2022-12-20T05:12:43.004Z,0.00
2022-12-20T05:13:43.255Z,0.00
2022-12-20T05:14:43.587Z,0.00
2022-12-20T05:15:43.861Z,0.00
2022-12-20T05:16:44.281Z,0.00
2022-12-20T05:17:44.433Z,0.00
2022-12-20T05:18:48.902Z,0.00
2022-12-20T05:19:45.022Z,0.00
2022-12-20T05:20:45.263Z,0.00
2022-12-20T05:21:45.557Z,0.00
2022-12-20T05:22:45.843Z,0.00
2022-12-20T05:23:46.102Z,0.00
2022-12-20T05:24:46.433Z,0.00
2022-12-20T05:25:46.702Z,0.00
2022-12-20T05:26:46.992Z,0.00
2022-12-20T05:27:47.248Z,0.00
2022-12-20T05:28:47.599Z,0.00
2022-12-20T05:29:47.875Z,0.00
2022-12-20T05:30:48.157Z,0.00
2022-12-20T05:31:48.570Z,0.00
2022-12-20T05:32:48.734Z,0.00
2022-12-20T05:33:49.051Z,0.00
2022-12-20T05:34:49.309Z,0.00
2022-12-20T05:35:49.595Z,0.00
2022-12-20T05:36:49.863Z,0.00
2022-12-20T05:37:50.829Z,0.00
2022-12-20T05:38:50.521Z,0.00
2022-12-20T05:39:50.868Z,0.00
2022-12-20T05:40:51.034Z,0.00
2022-12-20T05:41:51.360Z,0.00
2022-12-20T05:42:51.616Z,0.00
2022-12-20T05:43:51.902Z,0.00
2022-12-20T05:44:52.231Z,0.00
2022-12-20T05:45:52.511Z,0.00
2022-12-20T05:46:52.779Z,0.00
2022-12-20T05:47:53.141Z,0.00
2022-12-20T05:48:53.420Z,0.00
2022-12-20T05:49:53.691Z,0.00
2022-12-20T05:50:53.998Z,0.00
2022-12-20T05:51:54.269Z,0.00
2022-12-20T05:52:54.572Z,0.00
2022-12-20T05:53:54.849Z,0.00
2022-12-20T05:54:55.103Z,0.00
2022-12-20T05:55:55.411Z,0.00
2022-12-20T05:56:55.684Z,0.00
2022-12-20T05:57:56.007Z,0.00
2022-12-20T05:58:56.340Z,0.00
2022-12-20T05:59:56.615Z,0.00
2022-12-20T06:00:56.910Z,0.00
2022-12-20T06:01:57.242Z,0.00
2022-12-20T06:02:57.718Z,0.00
2022-12-20T06:03:57.802Z,0.00
2022-12-20T06:04:58.090Z,0.00
2022-12-20T06:05:58.402Z,0.00
2022-12-20T06:06:58.759Z,0.00
2022-12-20T06:07:59.065Z,0.00
2022-12-20T06:08:59.326Z,0.00
2022-12-20T06:09:59.593Z,0.00
2022-12-20T06:10:59.898Z,0.00
2022-12-20T06:12:00.177Z,0.00
2022-12-20T06:13:00.472Z,0.00
2022-12-20T06:14:00.727Z,0.00
2022-12-20T06:15:01.004Z,0.00
2022-12-20T06:16:01.365Z,0.00
2022-12-20T06:17:01.620Z,0.00
2022-12-20T06:18:01.975Z,0.00
2022-12-20T06:19:02.236Z,0.00
2022-12-20T06:20:02.494Z,0.00
2022-12-20T06:21:02.741Z,0.00
2022-12-20T06:22:03.026Z,0.00
2022-12-20T06:23:03.407Z,0.00
2022-12-20T06:24:03.673Z,0.00
2022-12-20T06:25:04.042Z,0.00
2022-12-20T06:26:04.192Z,0.00
2022-12-20T06:27:04.440Z,0.00
2022-12-20T06:28:04.777Z,0.00
2022-12-20T06:29:05.052Z,0.00
2022-12-20T06:30:05.306Z,0.00
2022-12-20T06:31:05.720Z,0.00
2022-12-20T06:32:05.920Z,0.00
2022-12-20T06:33:06.174Z,0.00
2022-12-20T06:34:06.447Z,0.00
2022-12-20T06:35:06.713Z,0.00
2022-12-20T06:36:07.011Z,0.00
2022-12-20T06:37:07.250Z,0.00
2022-12-20T06:38:07.586Z,0.00
2022-12-20T06:39:09.793Z,0.00
2022-12-20T06:40:08.182Z,0.00
2022-12-20T06:41:08.461Z,0.00
2022-12-20T06:42:08.720Z,0.00
2022-12-20T06:43:09.022Z,0.00
2022-12-20T06:44:09.262Z,0.00
2022-12-20T06:45:09.553Z,0.00
2022-12-20T06:46:09.897Z,0.00
2022-12-20T06:47:10.176Z,0.00
2022-12-20T06:48:10.490Z,0.00
2022-12-20T06:49:10.726Z,0.00
2022-12-20T06:50:10.967Z,0.00
2022-12-20T06:51:11.303Z,0.00
2022-12-20T06:52:11.578Z,0.00
2022-12-20T06:53:11.903Z,0.00
2022-12-20T06:54:12.166Z,0.00
2022-12-20T06:55:12.424Z,0.00
2022-12-20T06:56:12.707Z,0.00
2022-12-20T06:57:12.937Z,0.00
2022-12-20T06:58:13.254Z,0.00
2022-12-20T06:59:13.511Z,0.00
2022-12-20T07:00:13.776Z,0.00
2022-12-20T07:01:14.084Z,0.00
2022-12-20T07:02:14.585Z,0.00
2022-12-20T07:03:14.882Z,0.00
2022-12-20T07:04:15.021Z,0.00
2022-12-20T07:05:15.328Z,0.00
2022-12-20T07:06:15.608Z,0.00
2022-12-20T07:07:15.916Z,4.00
2022-12-20T07:08:16.169Z,4.00
2022-12-20T07:09:16.429Z,0.00
2022-12-20T07:10:16.715Z,4.00
2022-12-20T07:11:17.005Z,4.00
2022-12-20T07:12:17.266Z,4.00
2022-12-20T07:13:17.518Z,4.00
2022-12-20T07:14:17.818Z,4.00
2022-12-20T07:15:18.075Z,8.00
2022-12-20T07:16:18.351Z,8.00
2022-12-20T07:17:18.685Z,8.00
2022-12-20T07:18:18.968Z,12.00
2022-12-20T07:19:19.235Z,20.00
2022-12-20T07:20:19.536Z,24.00
2022-12-20T07:21:19.822Z,24.00
2022-12-20T07:22:20.154Z,32.00
2022-12-20T07:23:20.468Z,32.00
2022-12-20T07:24:20.758Z,36.00
2022-12-20T07:25:21.030Z,36.00
2022-12-20T07:26:21.257Z,36.00
2022-12-20T07:27:21.566Z,32.00
2022-12-20T07:28:21.888Z,32.00
2022-12-20T07:29:22.148Z,36.00
2022-12-20T07:30:22.469Z,36.00
2022-12-20T07:31:22.801Z,40.00
2022-12-20T07:32:23.112Z,44.00
2022-12-20T07:33:23.406Z,48.00
2022-12-20T07:34:23.693Z,56.00
2022-12-20T07:35:23.937Z,56.00
2022-12-20T07:36:24.229Z,60.00
2022-12-20T07:37:24.562Z,64.00
2022-12-20T07:38:24.890Z,68.00
2022-12-20T07:39:25.140Z,72.00
2022-12-20T07:40:25.418Z,80.00
2022-12-20T07:41:25.695Z,88.00
2022-12-20T07:42:30.327Z,100.00
2022-12-20T07:43:27.270Z,116.00
2022-12-20T07:44:26.464Z,128.00
2022-12-20T07:45:26.805Z,124.00
2022-12-20T07:46:27.292Z,120.00
2022-12-20T07:47:27.325Z,128.00
2022-12-20T07:48:27.596Z,136.00
2022-12-20T07:49:27.887Z,148.00
2022-12-20T07:50:28.136Z,156.00
2022-12-20T07:51:28.454Z,172.00
2022-12-20T07:52:28.793Z,200.00
2022-12-20T07:53:29.118Z,224.00
2022-12-20T07:54:29.408Z,216.00
2022-12-20T07:55:29.719Z,200.00
2022-12-20T07:56:30.015Z,188.00
2022-12-20T07:57:30.321Z,180.00
2022-12-20T07:58:30.658Z,176.00
2022-12-20T07:59:30.971Z,176.00
2022-12-20T08:00:31.304Z,176.00
2022-12-20T08:01:31.735Z,164.00
2022-12-20T08:02:32.109Z,152.00
2022-12-20T08:03:32.428Z,140.00
2022-12-20T08:04:32.518Z,132.00
2022-12-20T08:05:32.783Z,136.00
2022-12-20T08:06:33.087Z,136.00
2022-12-20T08:07:33.427Z,140.00
2022-12-20T08:08:33.748Z,128.00
2022-12-20T08:09:34.041Z,124.00
2022-12-20T08:10:34.327Z,124.00
2022-12-20T08:11:34.619Z,176.00
2022-12-20T08:12:34.966Z,216.00
2022-12-20T08:13:38.195Z,236.00
2022-12-20T08:14:36.556Z,244.00
2022-12-20T08:15:35.906Z,240.00
2022-12-20T08:16:36.273Z,248.00
2022-12-20T08:17:36.467Z,244.00
2022-12-20T08:18:36.761Z,240.00
2022-12-20T08:19:37.157Z,232.00
2022-12-20T08:20:37.296Z,228.00
2022-12-20T08:21:37.560Z,224.00
2022-12-20T08:22:37.886Z,220.00
2022-12-20T08:23:38.229Z,220.00
2022-12-20T08:24:38.500Z,220.00
2022-12-20T08:25:41.810Z,232.00
2022-12-20T08:26:39.146Z,240.00
2022-12-20T08:27:39.435Z,236.00
2022-12-20T08:28:39.761Z,224.00
2022-12-20T08:29:40.047Z,208.00
2022-12-20T08:30:40.388Z,204.00
2022-12-20T08:31:45.850Z,188.00
2022-12-20T08:32:41.897Z,184.00
2022-12-20T08:33:41.146Z,180.00
2022-12-20T08:34:41.428Z,176.00
2022-12-20T08:35:41.717Z,192.00
2022-12-20T08:36:42.020Z,184.00
2022-12-20T08:37:42.357Z,188.00
2022-12-20T08:38:42.708Z,184.00
2022-12-20T08:39:43.008Z,196.00
2022-12-20T08:40:43.322Z,216.00
2022-12-20T08:41:43.627Z,244.00
2022-12-20T08:42:43.899Z,284.00
2022-12-20T08:43:44.235Z,316.00
2022-12-20T08:44:44.522Z,348.00
2022-12-20T08:45:44.890Z,376.00
2022-12-20T08:46:45.222Z,388.00
2022-12-20T08:47:45.417Z,396.00
2022-12-20T08:48:45.702Z,408.00
2022-12-20T08:49:48.125Z,392.00
2022-12-20T08:50:46.375Z,368.00
2022-12-20T08:51:46.732Z,348.00
2022-12-20T08:52:46.941Z,328.00
2022-12-20T08:53:47.238Z,296.00
2022-12-20T08:54:47.565Z,256.00
2022-12-20T08:55:47.850Z,228.00
2022-12-20T08:56:48.191Z,216.00
2022-12-20T08:57:48.459Z,212.00
2022-12-20T08:58:48.799Z,212.00
2022-12-20T08:59:49.110Z,208.00
2022-12-20T09:00:49.393Z,192.00
2022-12-20T09:01:49.760Z,184.00
2022-12-20T09:02:50.137Z,172.00
2022-12-20T09:03:50.309Z,164.00
2022-12-20T09:04:50.476Z,152.00
2022-12-20T09:05:50.813Z,148.00
2022-12-20T09:06:51.082Z,140.00
2022-12-20T09:07:51.400Z,136.00
2022-12-20T09:08:51.743Z,136.00
2022-12-20T09:09:52.081Z,140.00
2022-12-20T09:10:52.378Z,152.00
2022-12-20T09:11:52.645Z,156.00
2022-12-20T09:12:52.982Z,168.00
2022-12-20T09:13:53.264Z,172.00
2022-12-20T09:14:53.605Z,176.00
2022-12-20T09:15:53.912Z,184.00
2022-12-20T09:16:54.153Z,188.00
2022-12-20T09:17:54.491Z,196.00
2022-12-20T09:19:00.754Z,200.00
2022-12-20T09:19:56.087Z,204.00
2022-12-20T09:20:55.449Z,212.00
2022-12-20T09:21:55.721Z,212.00
2022-12-20T09:22:56.021Z,220.00
2022-12-20T09:23:56.373Z,228.00
2022-12-20T09:24:56.641Z,240.00
2022-12-20T09:25:56.962Z,248.00
2022-12-20T09:26:57.298Z,256.00
2022-12-20T09:27:57.599Z,268.00
2022-12-20T09:28:57.921Z,272.00
2022-12-20T09:29:58.196Z,284.00
2022-12-20T09:30:58.575Z,288.00
2022-12-20T09:31:58.773Z,300.00
2022-12-20T09:33:07.332Z,316.00
2022-12-20T09:34:00.325Z,324.00
2022-12-20T09:34:59.644Z,328.00
2022-12-20T09:36:00.011Z,348.00
2022-12-20T09:37:00.266Z,368.00
2022-12-20T09:38:00.589Z,384.00
2022-12-20T09:39:00.927Z,392.00
2022-12-20T09:40:01.185Z,396.00
2022-12-20T09:41:01.522Z,400.00
2022-12-20T09:42:01.780Z,408.00
2022-12-20T09:43:02.117Z,420.00
2022-12-20T09:44:02.502Z,432.00
2022-12-20T09:45:02.818Z,440.00
2022-12-20T09:46:03.192Z,452.00
2022-12-20T09:47:09.749Z,452.00
2022-12-20T09:48:04.682Z,448.00
2022-12-20T09:49:03.938Z,444.00
2022-12-20T09:50:04.253Z,444.00
2022-12-20T09:51:04.516Z,428.00
2022-12-20T09:52:04.852Z,424.00
2022-12-20T09:53:05.141Z,412.00
2022-12-20T09:54:05.480Z,408.00
2022-12-20T09:55:05.771Z,416.00
2022-12-20T09:56:06.061Z,440.00
2022-12-20T09:57:06.335Z,456.00
2022-12-20T09:58:06.681Z,472.00
2022-12-20T09:59:06.983Z,492.00
2022-12-20T10:00:07.257Z,520.00
2022-12-20T10:01:10.632Z,544.00
2022-12-20T10:02:35.506Z,584.00
2022-12-20T10:03:10.776Z,584.00
2022-12-20T10:04:08.675Z,568.00
2022-12-20T10:05:08.886Z,556.00
2022-12-20T10:06:09.238Z,544.00
2022-12-20T10:07:09.317Z,544.00
2022-12-20T10:08:09.576Z,524.00
2022-12-20T10:09:09.939Z,492.00
2022-12-20T10:10:10.241Z,456.00
2022-12-20T10:11:10.523Z,428.00
2022-12-20T10:12:10.874Z,412.00
2022-12-20T10:13:11.154Z,396.00
2022-12-20T10:14:11.513Z,376.00
2022-12-20T10:15:11.815Z,356.00
2022-12-20T10:16:12.077Z,364.00
2022-12-20T10:17:12.399Z,400.00
2022-12-20T10:18:12.665Z,424.00
2022-12-20T10:19:12.993Z,424.00
2022-12-20T10:20:13.249Z,424.00
2022-12-20T10:21:13.580Z,440.00
2022-12-20T10:22:13.897Z,460.00
2022-12-20T10:23:14.172Z,476.00
2022-12-20T10:24:14.501Z,476.00
2022-12-20T10:25:14.782Z,492.00
2022-12-20T10:26:15.045Z,524.00
2022-12-20T10:27:15.388Z,556.00
2022-12-20T10:28:15.700Z,564.00
2022-12-20T10:29:16.003Z,556.00
2022-12-20T10:30:16.287Z,544.00
2022-12-20T10:31:16.666Z,540.00
2022-12-20T10:32:16.925Z,544.00
2022-12-20T10:33:17.225Z,536.00
2022-12-20T10:34:17.506Z,556.00
2022-12-20T10:35:17.803Z,596.00
2022-12-20T10:36:18.097Z,580.00
2022-12-20T10:37:18.447Z,572.00
2022-12-20T10:38:18.727Z,568.00
2022-12-20T10:39:19.025Z,584.00
2022-12-20T10:40:19.307Z,584.00
2022-12-20T10:41:21.852Z,588.00
2022-12-20T10:42:19.949Z,580.00
2022-12-20T10:43:20.245Z,632.00
2022-12-20T10:44:20.558Z,684.00
2022-12-20T10:45:20.854Z,668.00
2022-12-20T10:46:21.202Z,644.00
2022-12-20T10:47:21.498Z,660.00
2022-12-20T10:48:21.748Z,652.00
2022-12-20T10:49:22.106Z,596.00
2022-12-20T10:50:22.378Z,620.00
2022-12-20T10:51:22.742Z,624.00
2022-12-20T10:52:30.542Z,632.00
2022-12-20T10:53:23.357Z,628.00
2022-12-20T10:54:23.627Z,644.00
2022-12-20T10:55:23.911Z,680.00
2022-12-20T10:56:24.180Z,712.00
2022-12-20T10:57:24.493Z,728.00
2022-12-20T10:58:24.804Z,692.00
2022-12-20T10:59:25.119Z,640.00
2022-12-20T11:00:25.378Z,604.00
2022-12-20T11:01:25.736Z,576.00
2022-12-20T11:02:26.216Z,572.00
2022-12-20T11:03:26.724Z,560.00
2022-12-20T11:04:26.635Z,556.00
2022-12-20T11:05:26.834Z,564.00
2022-12-20T11:06:27.064Z,540.00
2022-12-20T11:07:27.386Z,520.00
2022-12-20T11:08:51.246Z,524.00
2022-12-20T11:09:28.922Z,544.00
2022-12-20T11:10:28.258Z,568.00
2022-12-20T11:11:28.552Z,600.00
2022-12-20T11:12:28.946Z,580.00
2022-12-20T11:13:29.109Z,536.00
2022-12-20T11:14:36.481Z,500.00
2022-12-20T11:15:34.234Z,460.00
2022-12-20T11:16:30.051Z,432.00
2022-12-20T11:17:30.228Z,428.00
2022-12-20T11:18:30.535Z,428.00
2022-12-20T11:19:30.806Z,420.00
2022-12-20T11:20:31.139Z,408.00
2022-12-20T11:21:31.476Z,392.00
2022-12-20T11:22:31.780Z,392.00
2022-12-20T11:23:32.104Z,408.00
2022-12-20T11:24:32.413Z,416.00
2022-12-20T11:25:32.766Z,412.00
2022-12-20T11:26:33.129Z,416.00
2022-12-20T11:27:33.296Z,428.00
2022-12-20T11:28:33.672Z,448.00
2022-12-20T11:29:34.804Z,472.00
2022-12-20T11:30:34.261Z,464.00
2022-12-20T11:31:34.653Z,468.00
2022-12-20T11:32:36.095Z,456.00
2022-12-20T11:33:35.159Z,456.00
2022-12-20T11:34:35.539Z,444.00
2022-12-20T11:35:35.866Z,440.00
2022-12-20T11:36:36.179Z,436.00
2022-12-20T11:37:36.498Z,436.00
2022-12-20T11:38:36.705Z,440.00
2022-12-20T11:39:36.979Z,436.00
2022-12-20T11:40:37.302Z,424.00
2022-12-20T11:41:37.604Z,416.00
2022-12-20T11:42:37.940Z,396.00
2022-12-20T11:44:00.967Z,384.00
2022-12-20T11:44:45.728Z,368.00
2022-12-20T11:45:39.780Z,376.00
2022-12-20T11:46:39.254Z,380.00
2022-12-20T11:47:39.433Z,372.00
2022-12-20T11:48:39.759Z,368.00
2022-12-20T11:49:40.092Z,344.00
2022-12-20T11:50:40.389Z,312.00
2022-12-20T11:51:40.697Z,284.00
2022-12-20T11:52:41.058Z,280.00
2022-12-20T11:53:41.221Z,288.00
2022-12-20T11:54:41.562Z,308.00
2022-12-20T11:55:41.914Z,320.00
2022-12-20T11:56:44.637Z,316.00
2022-12-20T11:58:16.402Z,320.00
2022-12-20T11:58:43.878Z,320.00
2022-12-20T11:59:43.110Z,320.00
2022-12-20T12:00:43.371Z,316.00
2022-12-20T12:01:43.819Z,308.00
2022-12-20T12:02:44.188Z,304.00
2022-12-20T12:03:44.356Z,304.00
2022-12-20T12:04:44.722Z,304.00
2022-12-20T12:05:45.084Z,312.00
2022-12-20T12:06:45.269Z,328.00
2022-12-20T12:07:45.570Z,336.00
2022-12-20T12:08:45.899Z,336.00
2022-12-20T12:09:46.145Z,332.00
2022-12-20T12:10:46.491Z,332.00
2022-12-20T12:12:48.071Z,332.00
2022-12-20T12:13:47.273Z,336.00
2022-12-20T12:14:47.620Z,332.00
2022-12-20T12:15:47.930Z,324.00
2022-12-20T12:16:48.288Z,292.00
2022-12-20T12:17:48.539Z,272.00
2022-12-20T12:18:48.799Z,244.00
2022-12-20T12:19:49.136Z,220.00
2022-12-20T12:20:49.400Z,204.00
2022-12-20T12:21:49.748Z,204.00
2022-12-20T12:22:50.099Z,212.00
2022-12-20T12:23:50.371Z,220.00
2022-12-20T12:24:50.636Z,228.00
2022-12-20T12:25:50.987Z,244.00
2022-12-20T12:26:51.301Z,268.00
2022-12-20T12:27:51.647Z,276.00
2022-12-20T12:28:51.945Z,272.00
2022-12-20T12:29:52.243Z,260.00
2022-12-20T12:30:52.559Z,256.00
2022-12-20T12:31:52.902Z,256.00
2022-12-20T12:32:53.114Z,264.00
2022-12-20T12:33:53.491Z,256.00
2022-12-20T12:34:53.674Z,244.00
2022-12-20T12:35:53.945Z,228.00
2022-12-20T12:36:54.227Z,216.00
2022-12-20T12:37:54.555Z,212.00
2022-12-20T12:39:01.698Z,212.00
2022-12-20T12:39:56.180Z,204.00
2022-12-20T12:40:55.421Z,200.00
2022-12-20T12:41:55.744Z,204.00
2022-12-20T12:42:56.086Z,204.00
2022-12-20T12:43:56.374Z,212.00
2022-12-20T12:44:56.668Z,224.00
2022-12-20T12:45:57.076Z,224.00
2022-12-20T12:46:57.281Z,224.00
2022-12-20T12:47:57.603Z,220.00
2022-12-20T12:48:57.911Z,216.00
2022-12-20T12:49:58.211Z,208.00
2022-12-20T12:50:58.524Z,200.00
2022-12-20T12:51:58.908Z,188.00
2022-12-20T12:52:59.160Z,184.00
2022-12-20T12:53:59.403Z,180.00
2022-12-20T12:54:59.768Z,176.00
2022-12-20T12:56:19.178Z,176.00
2022-12-20T12:57:01.424Z,172.00
2022-12-20T12:58:00.684Z,168.00
2022-12-20T12:59:00.977Z,160.00
2022-12-20T13:00:01.300Z,156.00
2022-12-20T13:01:01.601Z,156.00